Time;durP1;ratioP1;P1;durP2;ratioP2;P2;SDS_P1;SDS_P2;PMS_P1;PMS_P2;Temp;Humidity;BMP_temperature;BMP_pressure;BME280_temperature;BME280_humidity;BME280_pressure;Samples;Min_cycle;Max_cycle;Signal;HPM_P1;HPM_P2
2023/06/26 05:50:18;;;;;;;9.65;5.88;;;;;;;;;;10569181;27;20329;-83
2023/06/26 05:55:26;;;;;;;10.23;6.03;;;;;;;;;;10561882;22;20041;-84
2023/06/26 06:00:30;;;;;;;7.78;5.35;;;;;;;;;;10487829;28;20025;-84
2023/06/26 06:06:06;;;;;;;6.70;4.90;;;;;;;;;;10507171;28;20021;-85
2023/06/26 06:11:15;;;;;;;7.75;4.97;;;;;;;;;;10502721;28;20063;-84
2023/06/26 06:16:29;;;;;;;7.20;4.72;;;;;;;;;;10501341;28;20021;-85
2023/06/26 06:39:07;;;;;;;7.10;5.20;;;;;;;;;;10538537;28;20033;-84
2023/06/26 06:44:09;;;;;;;8.93;4.85;;;;;;;;;;10514768;28;20059;-85
2023/06/26 06:49:32;;;;;;;6.18;4.45;;;;;;;;;;10479814;28;20029;-86
2023/06/26 07:00:32;;;;;;;8.90;5.10;;;;;;;;;;10483029;28;20045;-85
2023/06/26 07:11:55;;;;;;;9.25;4.95;;;;;;;;;;10511380;28;20068;-85
2023/06/26 07:17:00;;;;;;;8.65;4.72;;;;;;;;;;10490725;28;20045;-84
2023/06/26 07:22:01;;;;;;;7.50;4.68;;;;;;;;;;10504070;28;20028;-85
2023/06/26 07:27:02;;;;;;;10.73;5.05;;;;;;;;;;10454702;28;20115;-84
2023/06/26 07:32:03;;;;;;;8.48;5.07;;;;;;;;;;10451227;28;20402;-84
2023/06/26 07:37:04;;;;;;;6.85;5.53;;;;;;;;;;10465441;28;20127;-84
2023/06/26 07:42:05;;;;;;;10.07;5.63;;;;;;;;;;10450826;28;20032;-86
2023/06/26 07:47:06;;;;;;;8.77;5.45;;;;;;;;;;10445630;28;20123;-85
2023/06/26 07:52:10;;;;;;;6.63;4.30;;;;;;;;;;10446355;28;20029;-84
2023/06/26 07:57:12;;;;;;;8.43;5.72;;;;;;;;;;10472716;28;20025;-84
2023/06/26 08:02:13;;;;;;;10.18;5.75;;;;;;;;;;10444202;28;20032;-86
2023/06/26 08:07:14;;;;;;;10.18;6.25;;;;;;;;;;10444050;28;20059;-85
2023/06/26 08:12:21;;;;;;;9.52;6.93;;;;;;;;;;10445059;28;20021;-84
2023/06/26 08:17:22;;;;;;;8.77;6.30;;;;;;;;;;10443721;28;20150;-85
2023/06/26 08:22:23;;;;;;;10.88;6.63;;;;;;;;;;10444703;28;20080;-84
2023/06/26 08:27:24;;;;;;;10.32;7.10;;;;;;;;;;10451832;28;20040;-83
2023/06/26 08:32:25;;;;;;;10.68;5.40;;;;;;;;;;10457272;28;20109;-84
2023/06/26 08:37:26;;;;;;;9.40;5.60;;;;;;;;;;10448470;28;20123;-86
2023/06/26 08:42:27;;;;;;;8.30;5.50;;;;;;;;;;10443017;28;20025;-85
2023/06/26 08:47:30;;;;;;;8.73;5.57;;;;;;;;;;10451136;28;20052;-85
2023/06/26 08:57:55;;;;;;;8.32;5.22;;;;;;;;;;10425311;28;20073;-85
2023/06/26 09:02:57;;;;;;;7.90;4.68;;;;;;;;;;10447373;28;20028;-85
2023/06/26 09:07:58;;;;;;;12.02;5.55;;;;;;;;;;10447502;28;20055;-85
2023/06/26 09:13:04;;;;;;;10.55;5.72;;;;;;;;;;10458122;28;20029;-85
2023/06/26 09:18:05;;;;;;;9.55;4.75;;;;;;;;;;10435771;28;20047;-86
2023/06/26 09:23:09;;;;;;;9.40;5.72;;;;;;;;;;10442550;28;20120;-85
2023/06/26 09:28:10;;;;;;;11.77;5.50;;;;;;;;;;10458295;28;20578;-86
2023/06/26 09:33:21;;;;;;;10.98;4.70;;;;;;;;;;10447402;28;20123;-85
2023/06/26 09:38:22;;;;;;;9.32;4.40;;;;;;;;;;10475190;28;20020;-88
2023/06/26 09:43:23;;;;;;;9.07;4.90;;;;;;;;;;10488039;28;20006;-87
2023/06/26 09:48:27;;;;;;;8.27;4.28;;;;;;;;;;10486071;28;20033;-85
2023/06/26 09:53:29;;;;;;;6.97;4.18;;;;;;;;;;10454627;28;20164;-84
2023/06/26 09:58:30;;;;;;;10.52;5.65;;;;;;;;;;10447840;28;20384;-84
2023/06/26 10:03:31;;;;;;;6.03;4.15;;;;;;;;;;10445559;28;20120;-84
2023/06/26 10:08:34;;;;;;;8.27;3.85;;;;;;;;;;10445037;28;20028;-82
2023/06/26 10:13:39;;;;;;;6.38;4.13;;;;;;;;;;10475765;28;20029;-81
2023/06/26 10:18:41;;;;;;;5.88;3.88;;;;;;;;;;10466441;28;20033;-83
2023/06/26 10:23:44;;;;;;;5.20;3.50;;;;;;;;;;10450178;28;20048;-84
2023/06/26 10:28:47;;;;;;;6.25;4.78;;;;;;;;;;10449465;28;20036;-85
2023/06/26 10:33:54;;;;;;;4.80;3.28;;;;;;;;;;10451551;28;20044;-84
2023/06/26 10:38:57;;;;;;;6.88;3.38;;;;;;;;;;10455297;28;20025;-84
2023/06/26 10:44:11;;;;;;;3.85;3.13;;;;;;;;;;10456988;28;20048;-84
2023/06/26 10:49:13;;;;;;;14.40;8.18;;;;;;;;;;10458077;28;20052;-83
2023/06/26 10:54:15;;;;;;;9.90;3.85;;;;;;;;;;10456037;28;20434;-83
2023/06/26 10:59:20;;;;;;;7.60;3.63;;;;;;;;;;10454516;28;20047;-84
2023/06/26 11:04:38;;;;;;;5.82;3.40;;;;;;;;;;10473639;28;20048;-84
2023/06/26 11:09:53;;;;;;;8.73;3.47;;;;;;;;;;10455091;28;20090;-84
2023/06/26 11:14:55;;;;;;;6.20;3.20;;;;;;;;;;10459223;28;20530;-86
2023/06/26 11:19:56;;;;;;;8.80;6.55;;;;;;;;;;10474306;28;20045;-84
2023/06/26 11:25:00;;;;;;;5.35;3.10;;;;;;;;;;10454597;28;20219;-84
2023/06/26 11:30:01;;;;;;;5.45;3.63;;;;;;;;;;10457348;28;20032;-85
2023/06/26 11:35:04;;;;;;;8.55;4.55;;;;;;;;;;10450379;28;20027;-86
2023/06/26 11:40:21;;;;;;;5.10;2.20;;;;;;;;;;10449977;28;20037;-85
2023/06/26 11:45:22;;;;;;;6.10;2.05;;;;;;;;;;10465431;28;20033;-85
2023/06/26 11:50:24;;;;;;;6.43;3.63;;;;;;;;;;10466277;28;20056;-86
2023/06/26 11:55:25;;;;;;;6.95;2.15;;;;;;;;;;10513931;23;20078;-83
2023/06/26 12:00:26;;;;;;;3.97;2.45;;;;;;;;;;10515467;28;20032;-81
2023/06/26 12:05:27;;;;;;;5.07;1.75;;;;;;;;;;10514802;28;20027;-81
2023/06/26 12:10:29;;;;;;;5.53;4.15;;;;;;;;;;10512578;28;20421;-82
2023/06/26 12:15:30;;;;;;;2.70;2.15;;;;;;;;;;10513068;28;20021;-81
2023/06/26 12:20:32;;;;;;;3.45;1.60;;;;;;;;;;10515304;28;20029;-81
2023/06/26 12:25:33;;;;;;;4.57;2.05;;;;;;;;;;10527102;28;20076;-81
2023/06/26 12:30:34;;;;;;;3.78;2.45;;;;;;;;;;10524998;28;20474;-82
2023/06/26 12:35:35;;;;;;;2.40;1.40;;;;;;;;;;10522184;28;20028;-82
2023/06/26 12:40:45;;;;;;;7.78;3.30;;;;;;;;;;10517960;28;20029;-82
2023/06/26 12:45:46;;;;;;;2.80;1.30;;;;;;;;;;10512390;28;20039;-82
2023/06/26 12:50:48;;;;;;;8.23;1.60;;;;;;;;;;10513920;28;20028;-82
2023/06/26 12:55:49;;;;;;;5.05;1.52;;;;;;;;;;10510726;28;20085;-82
2023/06/26 13:00:50;;;;;;;3.40;1.50;;;;;;;;;;10510463;28;20142;-82
2023/06/26 13:05:51;;;;;;;3.80;1.67;;;;;;;;;;10511291;28;20110;-82
2023/06/26 13:10:52;;;;;;;3.63;1.50;;;;;;;;;;10511233;28;20183;-82
2023/06/26 13:15:53;;;;;;;3.67;1.30;;;;;;;;;;10510377;28;20024;-83
2023/06/26 13:20:54;;;;;;;4.45;1.92;;;;;;;;;;10515523;28;20040;-81
2023/06/26 13:25:55;;;;;;;4.20;1.80;;;;;;;;;;10518973;28;20048;-82
2023/06/26 13:30:56;;;;;;;12.85;11.50;;;;;;;;;;10514120;28;20494;-85
2023/06/26 13:35:58;;;;;;;7.25;6.40;;;;;;;;;;10520296;28;20490;-84
2023/06/26 13:41:00;;;;;;;4.68;2.33;;;;;;;;;;10520734;28;20047;-85
2023/06/26 13:46:02;;;;;;;7.28;6.05;;;;;;;;;;10534291;28;20032;-84
2023/06/26 13:51:03;;;;;;;4.05;2.70;;;;;;;;;;10517083;28;20457;-83
2023/06/26 13:56:04;;;;;;;4.50;2.08;;;;;;;;;;10503505;28;20033;-80
2023/06/26 14:01:05;;;;;;;4.15;2.30;;;;;;;;;;10501623;28;20067;-79
2023/06/26 14:06:06;;;;;;;3.53;1.80;;;;;;;;;;10502039;28;20028;-80
2023/06/26 14:11:08;;;;;;;8.27;7.03;;;;;;;;;;10510548;28;20474;-80
2023/06/26 14:16:09;;;;;;;3.83;2.50;;;;;;;;;;10509371;28;20073;-80
2023/06/26 14:21:10;;;;;;;4.22;2.28;;;;;;;;;;10512006;28;20082;-79
2023/06/26 14:26:11;;;;;;;2.42;1.40;;;;;;;;;;10509377;28;20032;-79
2023/06/26 14:31:12;;;;;;;3.17;1.92;;;;;;;;;;10510391;28;20052;-79
2023/06/26 14:36:13;;;;;;;3.10;1.88;;;;;;;;;;10509586;28;20032;-79
2023/06/26 14:41:14;;;;;;;4.05;1.40;;;;;;;;;;10508674;28;20116;-78
2023/06/26 14:46:15;;;;;;;2.15;1.48;;;;;;;;;;10508381;28;20029;-79
2023/06/26 14:51:16;;;;;;;3.95;2.55;;;;;;;;;;10508998;28;20036;-78
2023/06/26 14:56:17;;;;;;;5.85;2.25;;;;;;;;;;10511958;28;20052;-80
2023/06/26 15:01:22;;;;;;;2.80;1.48;;;;;;;;;;10506047;28;20021;-79
2023/06/26 15:06:23;;;;;;;5.75;1.58;;;;;;;;;;10505528;28;20159;-79
2023/06/26 15:11:24;;;;;;;4.45;1.85;;;;;;;;;;10507972;28;20028;-79
2023/06/26 15:16:25;;;;;;;4.05;1.60;;;;;;;;;;10506580;28;20039;-79
2023/06/26 15:21:26;;;;;;;2.75;1.75;;;;;;;;;;10506208;28;20055;-79
2023/06/26 15:26:27;;;;;;;5.78;2.00;;;;;;;;;;10505160;28;20024;-79
2023/06/26 15:31:30;;;;;;;6.20;3.58;;;;;;;;;;10507048;28;20024;-78
2023/06/26 15:36:31;;;;;;;5.00;2.53;;;;;;;;;;10506756;28;20082;-79
2023/06/26 15:41:33;;;;;;;4.55;2.00;;;;;;;;;;10505054;28;20074;-79
2023/06/26 15:46:34;;;;;;;3.80;2.03;;;;;;;;;;10503261;28;20028;-79
2023/06/26 15:51:37;;;;;;;3.25;1.42;;;;;;;;;;10508624;28;20078;-79
2023/06/26 15:56:39;;;;;;;3.30;1.20;;;;;;;;;;10504009;28;20032;-79
2023/06/26 16:01:40;;;;;;;3.55;1.40;;;;;;;;;;10503453;28;20030;-79
2023/06/26 16:06:41;;;;;;;3.03;1.30;;;;;;;;;;10504183;28;20327;-79
2023/06/26 16:11:43;;;;;;;4.07;1.20;;;;;;;;;;10504200;28;20029;-80
2023/06/26 16:16:44;;;;;;;3.85;1.10;;;;;;;;;;10506655;28;20035;-79
2023/06/26 16:21:45;;;;;;;4.32;2.00;;;;;;;;;;10503470;28;20028;-79
2023/06/26 16:26:46;;;;;;;1.98;1.40;;;;;;;;;;10503966;28;20034;-79
2023/06/26 16:31:49;;;;;;;2.10;1.08;;;;;;;;;;10506794;28;20063;-79
2023/06/26 16:36:51;;;;;;;2.85;1.30;;;;;;;;;;10503805;28;20090;-79
2023/06/26 16:41:54;;;;;;;4.10;1.50;;;;;;;;;;10504123;28;20013;-79
2023/06/26 16:47:00;;;;;;;4.10;1.30;;;;;;;;;;10504334;28;20152;-78
2023/06/26 16:52:02;;;;;;;6.60;1.30;;;;;;;;;;10507045;28;20052;-78
2023/06/26 16:57:03;;;;;;;5.22;1.20;;;;;;;;;;10505621;28;20497;-78
2023/06/26 17:02:05;;;;;;;2.08;1.00;;;;;;;;;;10508728;28;20020;-78
2023/06/26 17:07:06;;;;;;;2.80;1.10;;;;;;;;;;10534734;28;20024;-80
2023/06/26 17:12:07;;;;;;;1.75;1.00;;;;;;;;;;10545886;28;20104;-79
2023/06/26 17:17:09;;;;;;;3.58;0.75;;;;;;;;;;10535174;28;20036;-81
2023/06/26 17:22:10;;;;;;;2.55;1.10;;;;;;;;;;10505775;28;20105;-81
2023/06/26 17:27:11;;;;;;;2.13;1.30;;;;;;;;;;10512424;28;20021;-81
2023/06/26 17:32:12;;;;;;;2.83;0.90;;;;;;;;;;10505546;28;20032;-81
2023/06/26 17:37:13;;;;;;;2.20;1.00;;;;;;;;;;10504612;28;20028;-82
2023/06/26 17:42:14;;;;;;;3.20;1.00;;;;;;;;;;10503216;28;20052;-82
2023/06/26 17:47:15;;;;;;;2.38;1.00;;;;;;;;;;10504036;28;20024;-81
2023/06/26 17:52:16;;;;;;;3.63;1.08;;;;;;;;;;10502819;28;20096;-81
2023/06/26 17:57:17;;;;;;;3.20;1.17;;;;;;;;;;10506689;28;20071;-85
2023/06/26 18:02:19;;;;;;;2.47;1.17;;;;;;;;;;10506957;28;20040;-84
2023/06/26 18:07:21;;;;;;;3.58;1.33;;;;;;;;;;10506136;28;20489;-84
2023/06/26 18:12:22;;;;;;;2.28;1.00;;;;;;;;;;10509814;28;20048;-84
2023/06/26 18:17:23;;;;;;;3.10;0.90;;;;;;;;;;10506860;28;20170;-84
2023/06/26 18:22:24;;;;;;;2.03;0.98;;;;;;;;;;10508579;28;20044;-84
2023/06/26 18:27:25;;;;;;;2.00;1.00;;;;;;;;;;10509586;28;20059;-84
2023/06/26 18:32:27;;;;;;;2.78;1.05;;;;;;;;;;10510996;28;20124;-83
2023/06/26 18:37:28;;;;;;;1.95;1.10;;;;;;;;;;10512728;28;20493;-84
2023/06/26 18:42:29;;;;;;;1.75;1.08;;;;;;;;;;10507444;28;20017;-84
2023/06/26 18:47:31;;;;;;;1.90;1.10;;;;;;;;;;10504162;28;20028;-84
2023/06/26 18:52:31;;;;;;;3.15;0.90;;;;;;;;;;10507505;28;20024;-84
2023/06/26 18:57:32;;;;;;;1.20;0.80;;;;;;;;;;10514964;28;20033;-84
2023/06/26 19:02:34;;;;;;;2.80;1.10;;;;;;;;;;10516605;28;20025;-84
2023/06/26 19:07:35;;;;;;;2.15;1.10;;;;;;;;;;10515666;28;20029;-84
2023/06/26 19:12:36;;;;;;;2.03;1.00;;;;;;;;;;10513341;28;20363;-85
